Columbia City, Indiana
Current Conditions -  °F | °C
As of 3:54 PM on Thursday 23 Oct 2014 (Local Time) from KFWA Reporting Station
Broken Clouds Broken Clouds  
Wind Chill: 58°   Ceiling: 25000
Heat Index: 58°   Visibility: 10mi
Dew Point: 40°   Wind: 6mph
Humidity: 51%   Direction: 180°S
Pressure: 30.16"   Gusts: NA
Location:  41.16°N, 85.49°W
Report Text: KFWA 231954Z 18005KT 10SM BKN250 14/04 A3016 RMK AO2 SLP219 T01440044
Loading
Personal Weather Stations






























Interactive Weather Map
Tropical Storm Tracking
New forecast layout! Learn more

10-Day Weather Forecast

Advertisements
Track Severe Weather on mobile